There are multiple Weather-warnings   Click here for more information


Meteo18 Weather Cam more information Meteo18 Weather Cam


Thunder radar more information blitzortung!


warning for Snow/Ice more information rain snow radar


Visit our other weather sites:

Template documentation
and downloads

And another site



Weather Underground History page Text

Daily Summary for February 1, 2017 Units:  English    Metric   Both
« Previous Day
Next Day »
Daily Weekly Monthly Yearly Custom
  High: Low: Average:
Temperature: TemperatureC °F 4.9 °F 9.3 °F
Dew Point: DewpointC °F 4.6 °F 7.8 °F
Humidity: Humidity % 77 % 91 %
Wind Speed: WindSpeedKMH mph 0.0 mph 2.2 mph
Wind Gust: WindSpeedGustKMH mph - -
Wind:- - SSW
Pressure: PressurehPa in 1012.4 in -
Precipitation: 0.3 in    
Historical Graphs
 
 
Tabular Data for February 1, 2017
Time Temperature Dew Point Pressure Wind Wind Speed Wind Gust Humidity Rainfall Rate (Hourly)
TemperatureC °F DewpointC °F PressurehPa in Calm     Humidity % HourlyPrecipMM in
00:02 9.1 °F 8.8 °F 1016.1 in Calm     98 % 0.0 in
00:12 9.1 °F 8.8 °F 1016.1 in Calm     98 % 0.0 in
00:17 9.1 °F 8.8 °F 1016.1 in Calm     98 % 0.0 in
00:22 9.2 °F 8.9 °F 1016.1 in Calm     98 % 0.0 in
00:32 9.1 °F 8.8 °F 1016.1 in Calm     98 % 0.0 in
00:37 9.1 °F 8.8 °F 1016.1 in Calm     98 % 0.0 in
00:42 9.1 °F 8.8 °F 1016.1 in Calm     98 % 0.0 in
00:52 9.1 °F 8.8 °F 1016.1 in Calm     98 % 0.0 in
00:57 8.9 °F 8.6 °F 1016.1 in Calm     98 % 0.0 in
01:02 8.9 °F 8.6 °F 1016.1 in Calm     98 % 0.0 in
01:12 8.9 °F 8.6 °F 1015.8 in Calm     98 % 0.0 in
01:17 8.9 °F 8.6 °F 1015.8 in Calm     98 % 0.0 in
01:22 8.9 °F 8.6 °F 1015.8 in Calm     98 % 0.0 in
01:27 8.9 °F 8.6 °F 1015.8 in Calm     98 % 0.0 in
01:32 8.9 °F 8.6 °F 1015.8 in Calm     98 % 0.0 in
01:37 8.9 °F 8.6 °F 1015.8 in Calm     98 % 0.0 in
01:42 8.8 °F 8.5 °F 1015.8 in Calm     98 % 0.0 in
01:47 8.8 °F 8.5 °F 1015.8 in Calm     98 % 0.0 in
01:52 8.8 °F 8.5 °F 1015.8 in Calm     98 % 0.0 in
01:57 8.8 °F 8.5 °F 1015.8 in Calm     98 % 0.0 in
02:02 8.7 °F 8.4 °F 1015.5 in Calm     98 % 0.0 in
02:07 8.7 °F 8.4 °F 1015.5 in Calm     98 % 0.0 in
02:12 8.7 °F 8.4 °F 1015.8 in Calm     98 % 0.0 in
02:17 8.7 °F 8.4 °F 1015.8 in Calm     98 % 0.0 in
02:22 8.6 °F 8.3 °F 1015.5 in Calm     98 % 0.0 in
02:27 8.5 °F 8.2 °F 1015.5 in Calm     98 % 0.0 in
02:32 8.5 °F 8.2 °F 1015.5 in Calm     98 % 0.0 in
02:37 8.6 °F 8.3 °F 1015.5 in Calm     98 % 0.0 in
02:42 8.6 °F 8.3 °F 1015.5 in Calm     98 % 0.0 in
02:47 8.6 °F 8.3 °F 1015.5 in Calm     98 % 0.0 in
02:52 8.5 °F 8.2 °F 1015.5 in Calm     98 % 0.0 in
02:57 8.5 °F 8.2 °F 1015.5 in Calm     98 % 0.0 in
03:02 8.5 °F 8.2 °F 1015.5 in Calm     98 % 0.0 in
03:07 8.4 °F 8.1 °F 1015.5 in Calm     98 % 0.0 in
03:12 8.3 °F 8.0 °F 1015.5 in Calm     98 % 0.0 in
03:17 8.2 °F 7.9 °F 1015.5 in Calm     98 % 0.0 in
03:22 8.3 °F 8.0 °F 1015.1 in Calm     98 % 0.0 in
03:27 8.2 °F 7.9 °F 1015.1 in Calm     98 % 0.0 in
03:32 8.3 °F 8.0 °F 1015.1 in Calm     98 % 0.0 in
03:37 8.3 °F 8.0 °F 1015.1 in Calm     98 % 0.0 in
03:42 8.0 °F 7.7 °F 1015.1 in Calm     98 % 0.0 in
03:47 7.9 °F 7.6 °F 1015.1 in Calm     98 % 0.0 in
03:52 7.9 °F 7.6 °F 1015.1 in Calm     98 % 0.0 in
03:57 7.9 °F 7.6 °F 1015.1 in Calm     98 % 0.0 in
04:02 7.9 °F 7.6 °F 1015.1 in Calm     98 % 0.0 in
04:07 7.9 °F 7.6 °F 1015.1 in Calm     98 % 0.0 in
04:12 7.8 °F 7.5 °F 1014.8 in Calm     98 % 0.0 in
04:17 7.7 °F 7.4 °F 1015.1 in Calm     98 % 0.0 in
04:22 7.6 °F 7.3 °F 1015.1 in Calm     98 % 0.0 in
04:27 7.4 °F 7.1 °F 1015.1 in Calm     98 % 0.0 in
04:32 7.3 °F 7.0 °F 1015.1 in Calm     98 % 0.0 in
04:37 7.3 °F 7.0 °F 1015.1 in Calm     98 % 0.0 in
04:42 7.3 °F 7.0 °F 1015.1 in Calm     98 % 0.0 in
04:47 7.2 °F 6.9 °F 1015.1 in Calm     98 % 0.0 in
04:52 7.2 °F 6.9 °F 1015.1 in Calm     98 % 0.0 in
04:57 7.3 °F 7.0 °F 1015.1 in Calm     98 % 0.0 in
05:02 7.4 °F 7.1 °F 1014.8 in Calm     98 % 0.0 in
05:07 7.3 °F 7.0 °F 1014.8 in Calm     98 % 0.0 in
05:12 7.3 °F 7.0 °F 1014.8 in Calm     98 % 0.0 in
05:17 7.3 °F 7.0 °F 1014.8 in Calm     98 % 0.0 in
05:22 7.2 °F 6.9 °F 1014.8 in Calm     98 % 0.0 in
05:27 7.1 °F 6.8 °F 1014.8 in Calm     98 % 0.0 in
05:32 6.8 °F 6.5 °F 1014.8 in Calm     98 % 0.0 in
05:37 6.6 °F 6.3 °F 1014.8 in Calm     98 % 0.0 in
05:42 6.7 °F 6.4 °F 1014.8 in Calm     98 % 0.0 in
05:47 6.8 °F 6.5 °F 1014.8 in Calm     98 % 0.0 in
05:52 6.6 °F 6.3 °F 1014.8 in Calm     98 % 0.0 in
05:57 6.7 °F 6.4 °F 1014.8 in Calm     98 % 0.0 in
06:02 6.7 °F 6.4 °F 1014.8 in Calm     98 % 0.0 in
06:12 6.5 °F 6.2 °F 1014.8 in Calm     98 % 0.0 in
06:17 6.4 °F 6.1 °F 1014.8 in Calm     98 % 0.0 in
06:22 6.3 °F 6.0 °F 1014.8 in Calm     98 % 0.0 in
06:27 6.3 °F 6.0 °F 1014.8 in Calm     98 % 0.0 in
06:32 6.3 °F 6.0 °F 1014.8 in Calm     98 % 0.0 in
06:37 6.3 °F 6.0 °F 1014.8 in Calm     98 % 0.0 in
06:42 6.1 °F 5.8 °F 1014.8 in Calm     98 % 0.0 in
06:47 6.1 °F 5.8 °F 1014.8 in Calm     98 % 0.0 in
06:52 6.1 °F 5.8 °F 1014.8 in Calm     98 % 0.0 in
06:57 6.0 °F 5.7 °F 1014.8 in Calm     98 % 0.0 in
07:02 6.0 °F 5.7 °F 1014.4 in Calm     98 % 0.0 in
07:07 5.9 °F 5.6 °F 1014.8 in Calm     98 % 0.0 in
07:12 5.9 °F 5.6 °F 1014.8 in Calm     98 % 0.0 in
07:17 5.8 °F 5.5 °F 1014.8 in Calm     98 % 0.0 in
07:22 5.7 °F 5.4 °F 1014.8 in Calm     98 % 0.0 in
07:27 5.7 °F 5.4 °F 1014.8 in Calm     98 % 0.0 in
07:32 5.7 °F 5.4 °F 1014.8 in Calm     98 % 0.0 in
07:37 5.8 °F 5.5 °F 1014.8 in Calm     98 % 0.0 in
07:42 5.7 °F 5.4 °F 1014.8 in Calm     98 % 0.0 in
07:47 5.8 °F 5.5 °F 1014.8 in Calm     98 % 0.0 in
07:52 5.7 °F 5.4 °F 1014.8 in Calm     98 % 0.0 in
07:57 5.7 °F 5.4 °F 1014.8 in Calm     98 % 0.0 in
08:02 5.7 °F 5.4 °F 1014.8 in Calm     98 % 0.0 in
08:07 5.4 °F 5.1 °F 1014.8 in Calm     98 % 0.0 in
08:12 5.1 °F 4.8 °F 1014.8 in Calm     98 % 0.0 in
08:17 5.1 °F 4.8 °F 1014.8 in Calm     98 % 0.0 in
08:22 5.3 °F 5.0 °F 1014.8 in Calm     98 % 0.0 in
08:27 5.3 °F 5.0 °F 1014.8 in Calm     98 % 0.3 in
08:32 5.3 °F 5.0 °F 1014.8 in Calm     98 % 0.3 in
08:37 5.3 °F 5.0 °F 1014.8 in Calm     98 % 0.3 in
08:42 5.5 °F 5.2 °F 1014.8 in Calm     98 % 0.3 in
08:47 5.4 °F 5.1 °F 1014.8 in Calm     98 % 0.3 in
08:52 5.3 °F 5.0 °F 1014.8 in Calm     98 % 0.3 in
08:57 5.2 °F 4.9 °F 1014.8 in Calm     98 % 0.3 in
09:02 5.3 °F 5.0 °F 1014.8 in Calm     98 % 0.3 in
09:07 5.3 °F 5.0 °F 1014.8 in Calm     98 % 0.3 in
09:12 5.2 °F 4.9 °F 1014.8 in Calm     98 % 0.3 in
09:17 4.9 °F 4.6 °F 1014.8 in Calm     98 % 0.3 in
09:22 5.1 °F 4.8 °F 1014.8 in Calm     98 % 0.3 in
09:27 5.3 °F 5.0 °F 1014.8 in Calm     98 % 0.0 in
09:32 5.5 °F 5.2 °F 1014.8 in Calm     98 % 0.0 in
09:37 5.6 °F 5.3 °F 1014.8 in Calm     98 % 0.0 in
09:42 5.7 °F 5.4 °F 1014.8 in Calm     98 % 0.0 in
09:52 5.9 °F 5.6 °F 1014.8 in Calm     98 % 0.0 in
09:57 6.2 °F 5.9 °F 1014.8 in Calm     98 % 0.0 in
10:02 6.4 °F 6.1 °F 1014.8 in Calm     98 % 0.0 in
10:07 7.1 °F 6.8 °F 1014.8 in Calm     98 % 0.0 in
10:12 7.2 °F 6.9 °F 1014.8 in Calm     98 % 0.0 in
10:17 6.9 °F 6.6 °F 1014.8 in Calm     98 % 0.0 in
10:22 6.9 °F 6.6 °F 1014.8 in Calm     98 % 0.0 in
10:27 7.2 °F 6.9 °F 1014.8 in Calm     98 % 0.0 in
10:32 7.3 °F 7.0 °F 1014.8 in Calm     98 % 0.0 in
10:42 7.5 °F 7.2 °F 1014.8 in Calm     98 % 0.0 in
10:47 7.3 °F 7.0 °F 1014.8 in Calm   3.2 mph 98 % 0.0 in
10:52 7.3 °F 6.9 °F 1014.8 in Calm   3.2 mph 97 % 0.0 in
10:57 7.4 °F 7.1 °F 1014.8 in Calm   3.2 mph 98 % 0.0 in
11:02 7.4 °F 7.0 °F 1014.8 in ESE 1.6 mph 3.2 mph 97 % 0.0 in
11:07 7.5 °F 7.1 °F 1014.8 in Calm   4.8 mph 97 % 0.0 in
11:12 7.7 °F 7.4 °F 1014.8 in Calm   4.8 mph 98 % 0.0 in
11:17 8.0 °F 7.7 °F 1014.8 in Calm   4.8 mph 98 % 0.0 in
11:22 8.1 °F 7.8 °F 1014.8 in SE 1.6 mph 3.2 mph 98 % 0.0 in
11:27 8.3 °F 8.0 °F 1014.8 in Calm   3.2 mph 98 % 0.0 in
11:32 8.5 °F 8.2 °F 1014.4 in Calm   3.2 mph 98 % 0.0 in
11:37 8.8 °F 8.3 °F 1014.4 in Calm   3.2 mph 97 % 0.0 in
11:42 8.9 °F 8.4 °F 1014.8 in Calm     97 % 0.0 in
11:47 9.3 °F 8.8 °F 1014.8 in Calm   4.8 mph 97 % 0.0 in
11:52 9.4 °F 8.8 °F 1014.8 in Calm   6.4 mph 96 % 0.0 in
11:57 9.5 °F 8.9 °F 1014.8 in SE 3.2 mph 6.4 mph 96 % 0.0 in
12:02 9.7 °F 9.1 °F 1014.4 in SE 4.8 mph 6.4 mph 96 % 0.0 in
12:07 9.9 °F 9.0 °F 1014.4 in SSW 3.2 mph 8.0 mph 94 % 0.0 in
12:12 10.2 °F 9.1 °F 1014.4 in ESE 4.8 mph 8.0 mph 93 % 0.0 in
12:17 10.3 °F 9.1 °F 1014.4 in Calm   8.0 mph 92 % 0.0 in
12:22 10.5 °F 9.3 °F 1014.4 in Calm   4.8 mph 92 % 0.0 in
12:32 11.1 °F 9.5 °F 1014.4 in South 1.6 mph 4.8 mph 90 % 0.0 in
12:37 11.3 °F 9.4 °F 1014.1 in Calm   4.8 mph 88 % 0.0 in
12:47 11.7 °F 9.6 °F 1014.1 in Calm   8.0 mph 87 % 0.0 in
12:52 11.9 °F 9.6 °F 1014.1 in South 3.2 mph 8.0 mph 86 % 0.0 in
12:57 12.2 °F 9.9 °F 1014.1 in South 4.8 mph 8.0 mph 86 % 0.0 in
13:02 12.2 °F 9.9 °F 1014.1 in SE 3.2 mph 9.7 mph 86 % 0.0 in
13:07 12.3 °F 9.9 °F 1014.1 in SE 3.2 mph 9.7 mph 85 % 0.0 in
13:12 12.6 °F 10.0 °F 1013.8 in SSW 3.2 mph 9.7 mph 84 % 0.0 in
13:17 12.6 °F 9.8 °F 1013.8 in South 3.2 mph 9.7 mph 83 % 0.0 in
13:22 12.5 °F 10.0 °F 1013.8 in South 1.6 mph 9.7 mph 85 % 0.0 in
13:27 12.6 °F 10.0 °F 1013.8 in SSW 1.6 mph 9.7 mph 84 % 0.0 in
13:32 12.8 °F 10.2 °F 1013.8 in SE 1.6 mph 9.7 mph 84 % 0.0 in
13:37 12.9 °F 10.4 °F 1013.8 in SSE 6.4 mph 9.7 mph 85 % 0.0 in
13:42 13.1 °F 10.5 °F 1013.4 in SE 1.6 mph 12.9 mph 84 % 0.0 in
13:47 13.3 °F 10.5 °F 1013.4 in South 3.2 mph 12.9 mph 83 % 0.0 in
13:52 13.3 °F 9.7 °F 1013.4 in South 6.4 mph 11.3 mph 79 % 0.0 in
13:57 13.3 °F 9.7 °F 1013.4 in SSW 12.9 mph 12.9 mph 79 % 0.0 in
14:02 13.3 °F 10.1 °F 1013.4 in South 9.7 mph 14.5 mph 81 % 0.0 in
14:07 13.4 °F 10.0 °F 1013.1 in SSW 8.0 mph 14.5 mph 80 % 0.0 in
14:12 13.5 °F 9.9 °F 1013.1 in SSW 4.8 mph 14.5 mph 79 % 0.0 in
14:17 13.6 °F 10.0 °F 1013.1 in SW 8.0 mph 16.1 mph 79 % 0.0 in
14:22 13.5 °F 9.5 °F 1013.1 in South 6.4 mph 17.7 mph 77 % 0.0 in
14:27 13.4 °F 9.6 °F 1013.1 in SSW 8.0 mph 19.3 mph 78 % 0.0 in
14:32 13.4 °F 10.0 °F 1013.1 in SW 9.7 mph 19.3 mph 80 % 0.0 in
14:37 13.4 °F 10.0 °F 1013.1 in SW 11.3 mph 16.1 mph 80 % 0.0 in
14:42 13.5 °F 9.9 °F 1013.1 in SSW 6.4 mph 14.5 mph 79 % 0.0 in
14:47 13.5 °F 9.9 °F 1013.1 in SSW 9.7 mph 14.5 mph 79 % 0.0 in
14:52 13.5 °F 10.3 °F 1013.1 in South 4.8 mph 14.5 mph 81 % 0.0 in
14:57 13.5 °F 10.1 °F 1013.1 in SSE 3.2 mph 14.5 mph 80 % 0.0 in
15:02 13.4 °F 10.0 °F 1013.1 in South 8.0 mph 12.9 mph 80 % 0.0 in
15:07 13.4 °F 10.2 °F 1012.8 in SSW 9.7 mph 9.7 mph 81 % 0.0 in
15:12 13.5 °F 9.9 °F 1012.8 in South 8.0 mph 11.3 mph 79 % 0.0 in
15:17 13.5 °F 10.3 °F 1013.1 in South 4.8 mph 11.3 mph 81 % 0.0 in
15:22 13.4 °F 10.2 °F 1012.8 in South 4.8 mph 11.3 mph 81 % 0.0 in
15:27 13.4 °F 10.2 °F 1013.1 in SW 6.4 mph 9.7 mph 81 % 0.0 in
15:32 13.3 °F 9.7 °F 1013.1 in SSW 6.4 mph 11.3 mph 79 % 0.0 in
15:37 13.3 °F 10.1 °F 1013.1 in South 6.4 mph 12.9 mph 81 % 0.0 in
15:42 13.1 °F 9.9 °F 1013.1 in SSW 4.8 mph 12.9 mph 81 % 0.0 in
15:52 12.9 °F 9.7 °F 1013.1 in South 6.4 mph 8.0 mph 81 % 0.0 in
15:57 12.8 °F 9.4 °F 1013.1 in South 4.8 mph 11.3 mph 80 % 0.0 in
16:02 12.7 °F 9.5 °F 1013.1 in SSW 3.2 mph 11.3 mph 81 % 0.0 in
16:07 12.6 °F 9.4 °F 1013.1 in SSW 4.8 mph 11.3 mph 81 % 0.0 in
16:12 12.6 °F 9.4 °F 1012.8 in SSE 3.2 mph 8.0 mph 81 % 0.0 in
16:17 12.5 °F 9.3 °F 1012.8 in SSW 1.6 mph 8.0 mph 81 % 0.0 in
16:22 12.3 °F 9.3 °F 1012.8 in SSW 1.6 mph 8.0 mph 82 % 0.0 in
16:27 12.3 °F 9.3 °F 1012.8 in SSW 1.6 mph 6.4 mph 82 % 0.0 in
16:32 12.3 °F 9.3 °F 1012.8 in SW 3.2 mph 6.4 mph 82 % 0.0 in
16:37 12.3 °F 9.3 °F 1013.1 in SW 3.2 mph 6.4 mph 82 % 0.0 in
16:42 12.2 °F 9.2 °F 1013.1 in SSW 3.2 mph 8.0 mph 82 % 0.0 in
16:47 12.1 °F 9.3 °F 1013.1 in SSW 4.8 mph 8.0 mph 83 % 0.0 in
16:52 12.0 °F 9.2 °F 1013.1 in SSW 3.2 mph 6.4 mph 83 % 0.0 in
16:57 11.9 °F 9.3 °F 1013.1 in SW 4.8 mph 6.4 mph 84 % 0.0 in
17:02 11.9 °F 9.3 °F 1013.1 in SSW 1.6 mph 4.8 mph 84 % 0.0 in
17:07 11.8 °F 9.2 °F 1013.1 in SSW 1.6 mph 4.8 mph 84 % 0.0 in
17:12 11.8 °F 9.2 °F 1013.1 in SSW 1.6 mph 4.8 mph 84 % 0.0 in
17:17 11.7 °F 9.3 °F 1013.1 in SSW 1.6 mph 3.2 mph 85 % 0.0 in
17:22 11.7 °F 9.3 °F 1013.1 in South 1.6 mph 3.2 mph 85 % 0.0 in
17:27 11.6 °F 9.2 °F 1013.1 in South 1.6 mph 3.2 mph 85 % 0.0 in
17:32 11.5 °F 9.1 °F 1013.1 in SSW 1.6 mph 3.2 mph 85 % 0.0 in
17:37 11.4 °F 9.0 °F 1013.1 in SSW 3.2 mph 4.8 mph 85 % 0.0 in
17:42 11.4 °F 9.0 °F 1013.1 in SSW 1.6 mph 6.4 mph 85 % 0.0 in
17:47 11.3 °F 9.0 °F 1013.1 in SSW 1.6 mph 6.4 mph 86 % 0.0 in
17:52 11.3 °F 9.0 °F 1013.1 in SSW 1.6 mph 6.4 mph 86 % 0.0 in
17:57 11.3 °F 9.0 °F 1013.4 in SW 1.6 mph 3.2 mph 86 % 0.0 in
18:02 11.3 °F 8.9 °F 1013.4 in SSW 3.2 mph 3.2 mph 85 % 0.0 in
18:07 11.3 °F 8.9 °F 1013.4 in SSW 3.2 mph 3.2 mph 85 % 0.0 in
18:12 11.3 °F 8.9 °F 1013.4 in SSW 1.6 mph 3.2 mph 85 % 0.0 in
18:17 11.3 °F 8.9 °F 1013.4 in SSW 3.2 mph 4.8 mph 85 % 0.0 in
18:22 11.3 °F 8.7 °F 1013.4 in SSW 1.6 mph 4.8 mph 84 % 0.0 in
18:27 11.3 °F 8.9 °F 1013.4 in SSW 1.6 mph 4.8 mph 85 % 0.0 in
18:32 11.2 °F 8.6 °F 1013.4 in SSW 1.6 mph 4.8 mph 84 % 0.0 in
18:37 11.1 °F 8.7 °F 1013.4 in SW 3.2 mph 3.2 mph 85 % 0.0 in
18:42 11.1 °F 8.5 °F 1013.4 in SW 1.6 mph 4.8 mph 84 % 0.0 in
18:47 11.1 °F 8.5 °F 1013.4 in SW 4.8 mph 4.8 mph 84 % 0.0 in
18:52 11.1 °F 8.5 °F 1013.4 in SSW 4.8 mph 6.4 mph 84 % 0.0 in
18:57 11.1 °F 8.5 °F 1013.4 in South 3.2 mph 6.4 mph 84 % 0.0 in
19:02 10.9 °F 8.3 °F 1013.4 in SSW 1.6 mph 6.4 mph 84 % 0.0 in
19:07 10.7 °F 8.3 °F 1013.4 in SSW 4.8 mph 6.4 mph 85 % 0.0 in
19:12 10.5 °F 8.1 °F 1013.4 in SSW 4.8 mph 6.4 mph 85 % 0.0 in
19:17 10.5 °F 8.1 °F 1013.4 in SW 6.4 mph 6.4 mph 85 % 0.0 in
19:22 10.6 °F 8.2 °F 1013.4 in SW 12.9 mph 12.9 mph 85 % 0.0 in
19:27 10.6 °F 8.2 °F 1013.8 in SW 8.0 mph 12.9 mph 85 % 0.0 in
19:32 10.6 °F 8.2 °F 1013.8 in SW 9.7 mph 12.9 mph 85 % 0.0 in
19:37 10.5 °F 8.1 °F 1013.8 in SW 9.7 mph 12.9 mph 85 % 0.0 in
19:42 10.7 °F 8.1 °F 1013.8 in SW 12.9 mph 14.5 mph 84 % 0.0 in
19:47 11.0 °F 8.2 °F 1013.8 in SW 4.8 mph 14.5 mph 83 % 0.0 in
19:52 11.2 °F 8.2 °F 1013.8 in SW 6.4 mph 14.5 mph 82 % 0.0 in
19:57 11.2 °F 8.2 °F 1013.8 in West 3.2 mph 14.5 mph 82 % 0.0 in
20:02 11.3 °F 8.2 °F 1013.8 in Calm   11.3 mph 81 % 0.0 in
20:12 11.5 °F 8.2 °F 1013.8 in SW 6.4 mph 14.5 mph 80 % 0.0 in
20:17 11.6 °F 8.3 °F 1013.4 in SW 3.2 mph 14.5 mph 80 % 0.0 in
20:22 11.6 °F 8.3 °F 1013.4 in WSW 11.3 mph 14.5 mph 80 % 0.0 in
20:32 11.6 °F 8.3 °F 1013.4 in SW 8.0 mph 14.5 mph 80 % 0.0 in
20:37 11.5 °F 8.2 °F 1013.4 in SW 9.7 mph 14.5 mph 80 % 0.0 in
20:42 11.3 °F 8.2 °F 1013.4 in SW 9.7 mph 12.9 mph 81 % 0.0 in
20:52 11.2 °F 8.1 °F 1013.8 in SW 9.7 mph 16.1 mph 81 % 0.0 in
20:57 11.2 °F 8.1 °F 1013.8 in SW 11.3 mph 16.1 mph 81 % 0.0 in
21:02 11.1 °F 8.0 °F 1013.8 in SSW 4.8 mph 16.1 mph 81 % 0.0 in
21:07 10.6 °F 8.0 °F 1013.4 in SSW 9.7 mph 16.1 mph 84 % 0.0 in
21:12 10.6 °F 8.0 °F 1013.4 in SW 4.8 mph 16.1 mph 84 % 0.0 in
21:22 10.8 °F 7.9 °F 1013.4 in SW 4.8 mph 12.9 mph 82 % 0.0 in
21:32 10.7 °F 7.9 °F 1013.4 in SSW 4.8 mph 12.9 mph 83 % 0.0 in
21:37 10.5 °F 7.7 °F 1013.4 in SW 6.4 mph 11.3 mph 83 % 0.0 in
21:42 10.5 °F 7.9 °F 1013.1 in SW 4.8 mph 9.7 mph 84 % 0.0 in
21:47 10.5 °F 7.7 °F 1013.1 in SW 8.0 mph 8.0 mph 83 % 0.0 in
21:52 10.5 °F 7.7 °F 1013.1 in SW 6.4 mph 9.7 mph 83 % 0.0 in
21:57 10.5 °F 7.7 °F 1013.1 in SSW 1.6 mph 9.7 mph 83 % 0.0 in
22:02 10.0 °F 7.2 °F 1013.1 in SSE 3.2 mph 9.7 mph 83 % 0.0 in
22:12 9.2 °F 7.1 °F 1013.1 in South 1.6 mph 4.8 mph 87 % 0.0 in
22:17 8.8 °F 6.9 °F 1012.8 in SW 4.8 mph 4.8 mph 88 % 0.0 in
22:22 9.1 °F 7.4 °F 1012.8 in SW 6.4 mph 6.4 mph 89 % 0.0 in
22:27 9.4 °F 7.5 °F 1012.8 in SSW 4.8 mph 8.0 mph 88 % 0.0 in
22:32 9.7 °F 7.5 °F 1012.8 in SW 4.8 mph 8.0 mph 86 % 0.0 in
22:37 10.0 °F 7.6 °F 1012.8 in WSW 6.4 mph 9.7 mph 85 % 0.0 in
22:42 10.1 °F 7.5 °F 1012.8 in WSW 6.4 mph 9.7 mph 84 % 0.0 in
22:52 10.4 °F 7.8 °F 1012.8 in SSW 3.2 mph 12.9 mph 84 % 0.0 in
22:57 10.2 °F 7.4 °F 1012.8 in SSE 1.6 mph 12.9 mph 83 % 0.0 in
23:02 9.2 °F 6.5 °F 1012.8 in SE 3.2 mph 11.3 mph 83 % 0.0 in
23:12 8.5 °F 6.5 °F 1012.8 in SSE 1.6 mph 6.4 mph 87 % 0.0 in
23:17 8.1 °F 6.1 °F 1012.8 in SSW 1.6 mph 6.4 mph 87 % 0.0 in
23:22 7.7 °F 6.0 °F 1012.8 in SSW 1.6 mph 4.8 mph 89 % 0.0 in
23:27 7.6 °F 6.1 °F 1012.8 in South 1.6 mph 3.2 mph 90 % 0.0 in
23:32 7.5 °F 6.1 °F 1012.8 in SSW 1.6 mph 3.2 mph 91 % 0.0 in
23:42 7.8 °F 6.6 °F 1012.4 in SSE 1.6 mph 3.2 mph 92 % 0.0 in
23:47 7.9 °F 6.7 °F 1012.4 in Calm   3.2 mph 92 % 0.0 in
23:52 7.9 °F 6.7 °F 1012.4 in Calm   1.6 mph 92 % 0.0 in
23:57 7.8 °F 6.4 °F 1012.4 in SSW 1.6 mph 1.6 mph 91 % 0.0 in
Meteo18
Compliments of Weather Underground - 4 mb

Script developed by  Jim McMurry - jmcmurry@mwt.net Adapted for the template by  Wim van der Kuil - Leuven-Template.eu

You find our weather info also at:

European Weather Network

Weather Underground

Equipment we use:

Weather-station
Davis Vue

Weather-program
Meteobridge

Weather-server
Raspberry PI 2 B+

Provider
1 and 1

Davis Vue

Meteobridge

Raspberry PI 2 B+

1 and 1